Time;durP1;ratioP1;P1;durP2;ratioP2;P2;SDS_P1;SDS_P2;PMS_P1;PMS_P2;Temp;Humidity;BMP_temperature;BMP_pressure;BME280_temperature;BME280_humidity;BME280_pressure;Samples;Min_cycle;Max_cycle;Signal;HPM_P1;HPM_P2
2021/12/13 00:00:57;;;;;;;23.95;11.82;;;3.50;99.90;;;;;;5013224;28;20398;-79
2021/12/13 00:03:46;;;;;;;19.50;10.45;;;3.60;99.90;;;;;;5013273;28;20029;-79
2021/12/13 00:06:18;;;;;;;18.65;9.98;;;3.80;99.90;;;;;;5030001;28;20033;-79
2021/12/13 00:08:50;;;;;;;19.98;9.73;;;3.80;99.90;;;;;;5032296;28;20045;-79
2021/12/13 00:11:23;;;;;;;17.17;9.20;;;3.80;99.90;;;;;;5012909;28;20080;-79
2021/12/13 00:14:16;;;;;;;18.33;9.32;;;3.80;99.90;;;;;;5030596;28;20055;-79
2021/12/13 00:16:46;;;;;;;20.10;9.73;;;3.70;99.90;;;;;;5012212;28;20037;-79
2021/12/13 00:19:18;;;;;;;17.73;8.95;;;3.90;99.90;;;;;;5030272;28;20033;-79
2021/12/13 00:21:46;;;;;;;;;;;4.00;99.90;;;;;;5012984;28;20034;-79
2021/12/13 00:24:20;;;;;;;17.25;9.15;;;4.10;99.90;;;;;;5030280;28;19947;-79
2021/12/13 00:26:49;;;;;;;14.88;8.88;;;4.10;99.90;;;;;;5032009;28;20025;-79
2021/12/13 00:29:22;;;;;;;12.77;7.28;;;4.20;99.90;;;;;;5030804;28;20088;-79
2021/12/13 00:32:10;;;;;;;18.33;8.10;;;4.20;99.90;;;;;;5030330;28;20163;-79
2021/12/13 00:34:44;;;;;;;12.50;6.97;;;4.20;99.90;;;;;;5028650;28;20017;-79
2021/12/13 00:37:10;;;;;;;15.82;8.15;;;4.30;99.90;;;;;;5030270;28;20025;-79
2021/12/13 00:39:55;;;;;;;13.35;7.70;;;4.20;99.90;;;;;;5030259;28;20521;-79
2021/12/13 00:42:26;;;;;;;12.85;7.35;;;4.10;99.90;;;;;;5012442;28;20017;-79
2021/12/13 00:44:57;;;;;;;15.10;7.77;;;4.20;99.90;;;;;;5027855;28;20026;-79
2021/12/13 00:47:27;;;;;;;19.98;8.20;;;4.20;99.90;;;;;;5031250;28;20052;-79
2021/12/13 00:50:15;;;;;;;14.60;7.47;;;4.30;99.90;;;;;;5029598;28;20025;-79
2021/12/13 00:52:43;;;;;;;15.63;7.40;;;4.40;99.90;;;;;;5030332;28;20025;-79
2021/12/13 00:55:15;;;;;;;21.00;8.45;;;4.20;99.90;;;;;;5012026;28;20072;-79
2021/12/13 00:57:43;;;;;;;13.90;7.35;;;4.00;99.90;;;;;;5028081;28;20029;-79
2021/12/13 01:00:14;;;;;;;12.75;7.57;;;4.10;99.90;;;;;;5027198;28;20414;-79
2021/12/13 01:02:54;;;;;;;10.93;6.88;;;4.10;99.90;;;;;;5009586;28;20033;-79
2021/12/13 01:05:40;;;;;;;13.75;6.45;;;4.20;99.90;;;;;;5029415;28;20254;-79
2021/12/13 01:08:27;;;;;;;11.27;7.20;;;4.10;99.90;;;;;;5007359;28;20030;-79
2021/12/13 01:10:53;;;;;;;14.50;6.80;;;3.90;99.90;;;;;;5024335;28;20322;-79
2021/12/13 01:13:26;;;;;;;9.82;6.43;;;3.80;99.90;;;;;;5011080;28;20467;-80
2021/12/13 01:16:13;;;;;;;10.23;6.28;;;4.00;99.90;;;;;;5029191;28;20026;-79
2021/12/13 01:19:26;;;;;;;12.48;6.70;;;4.00;99.90;;;;;;5029307;28;20536;-79
2021/12/13 01:22:43;;;;;;;9.38;5.65;;;4.10;99.90;;;;;;5028651;28;20083;-79
2021/12/13 01:28:37;;;;;;;9.73;5.63;;;3.90;99.90;;;;;;5028535;28;20036;-79
2021/12/13 01:31:11;;;;;;;9.73;5.75;;;3.90;99.90;;;;;;5009115;28;20173;-79
2021/12/13 01:33:40;;;;;;;8.93;5.47;;;3.80;99.90;;;;;;5029335;28;20036;-79
2021/12/13 01:36:08;;;;;;;8.50;5.80;;;3.80;99.90;;;;;;5029570;28;20038;-79
2021/12/13 01:38:51;;;;;;;9.32;6.03;;;3.90;99.90;;;;;;5030539;28;20033;-79
2021/12/13 01:41:43;;;;;;;9.20;5.40;;;4.00;99.90;;;;;;5029211;28;20034;-79
2021/12/13 01:44:17;;;;;;;8.25;4.90;;;3.90;99.90;;;;;;5028763;28;20056;-79
2021/12/13 01:46:49;;;;;;;8.75;5.35;;;3.90;99.90;;;;;;5028038;28;20041;-79
2021/12/13 01:49:16;;;;;;;10.98;5.88;;;3.90;99.90;;;;;;5029136;28;20033;-79
2021/12/13 01:51:42;;;;;;;7.75;5.65;;;3.90;99.90;;;;;;5011081;28;20029;-79
2021/12/13 01:54:14;;;;;;;8.70;6.05;;;3.90;99.90;;;;;;5029550;28;20026;-79
2021/12/13 01:57:21;;;;;;;8.70;5.68;;;3.80;99.90;;;;;;5030042;28;20029;-79
2021/12/13 02:00:07;;;;;;;9.13;5.75;;;3.60;99.90;;;;;;5030027;28;20029;-79
2021/12/13 02:02:43;;;;;;;7.15;5.05;;;3.70;99.90;;;;;;5008770;28;20123;-80
2021/12/13 02:05:14;;;;;;;7.53;4.85;;;3.70;99.90;;;;;;5027491;28;20080;-79
2021/12/13 02:07:54;;;;;;;8.20;5.30;;;3.80;99.90;;;;;;5007021;28;20018;-79
2021/12/13 02:10:27;;;;;;;8.50;5.07;;;3.70;99.90;;;;;;5020864;28;20021;-79
2021/12/13 02:12:58;;;;;;;8.77;5.50;;;3.50;99.90;;;;;;5028464;28;20131;-80
2021/12/13 02:18:16;;;;;;;8.23;5.35;;;3.70;99.90;;;;;;5028654;28;20043;-80
2021/12/13 02:20:47;;;;;;;9.63;5.53;;;3.70;99.90;;;;;;5029802;28;20052;-80
2021/12/13 02:23:13;;;;;;;8.07;4.97;;;3.60;99.90;;;;;;5028545;28;20032;-80
2021/12/13 02:25:48;;;;;;;7.80;5.95;;;3.70;99.90;;;;;;5027945;28;20276;-80
2021/12/13 02:28:17;;;;;;;9.50;5.95;;;3.70;99.90;;;;;;5028217;28;20029;-80
2021/12/13 02:30:42;;;;;;;8.85;5.57;;;3.70;99.90;;;;;;5010241;28;20057;-80
2021/12/13 02:33:13;;;;;;;9.38;5.68;;;3.70;99.90;;;;;;5027980;28;20026;-80
2021/12/13 02:35:49;;;;;;;8.15;5.05;;;3.70;99.90;;;;;;5029554;28;20162;-79
2021/12/13 02:38:16;;;;;;;7.30;4.88;;;3.60;99.90;;;;;;5010047;28;20079;-80
2021/12/13 02:40:42;;;;;;;6.80;4.13;;;3.60;99.90;;;;;;5028138;28;20028;-80
2021/12/13 02:43:11;;;;;;;7.60;4.75;;;3.70;99.90;;;;;;5027648;28;20030;-80
2021/12/13 02:45:44;;;;;;;9.43;5.40;;;3.60;99.90;;;;;;5009708;28;20052;-80
2021/12/13 02:48:20;;;;;;;8.13;4.88;;;3.70;99.90;;;;;;5027848;28;20033;-80
2021/12/13 02:50:52;;;;;;;6.63;4.75;;;3.60;99.90;;;;;;5008129;28;20474;-80
2021/12/13 02:53:37;;;;;;;7.75;4.97;;;3.40;99.90;;;;;;5028578;28;20028;-80
2021/12/13 02:56:04;;;;;;;7.63;5.43;;;3.50;99.90;;;;;;5027795;28;20207;-80
2021/12/13 02:58:31;;;;;;;7.25;4.75;;;3.60;99.90;;;;;;5026652;28;20496;-80
2021/12/13 03:01:11;;;;;;;7.53;4.65;;;3.60;99.90;;;;;;5027541;28;20018;-81
2021/12/13 03:03:42;;;;;;;7.13;4.88;;;3.60;99.90;;;;;;5027743;28;20104;-80
2021/12/13 03:06:12;;;;;;;6.63;4.35;;;3.70;99.90;;;;;;5027778;28;20049;-79
2021/12/13 03:08:44;;;;;;;6.40;4.05;;;3.40;99.90;;;;;;5029069;28;20045;-80
2021/12/13 03:11:22;;;;;;;6.82;4.45;;;3.50;99.90;;;;;;5027771;28;20044;-80
2021/12/13 03:13:55;;;;;;;6.43;4.50;;;3.60;99.90;;;;;;5027361;28;20056;-81
2021/12/13 03:16:25;;;;;;;6.43;4.90;;;3.60;99.90;;;;;;5027879;28;20029;-81
2021/12/13 03:18:58;;;;;;;7.43;4.53;;;3.60;99.90;;;;;;5028041;28;20053;-81
2021/12/13 03:22:08;;;;;;;6.57;4.65;;;3.60;99.90;;;;;;5010015;28;20518;-81
2021/12/13 03:24:34;;;;;;;7.65;4.80;;;3.60;99.90;;;;;;4986233;28;20634;-81
2021/12/13 03:27:06;;;;;;;8.00;4.88;;;3.60;99.90;;;;;;4986213;28;20023;-81
2021/12/13 03:30:05;;;;;;;9.52;5.07;;;3.60;99.90;;;;;;4987303;28;20026;-81
2021/12/13 03:33:01;;;;;;;10.30;5.70;;;3.30;99.90;;;;;;4986633;28;20084;-81
2021/12/13 03:35:31;;;;;;;8.13;4.70;;;3.30;99.90;;;;;;4987268;28;20038;-80
2021/12/13 03:38:02;;;;;;;7.95;5.60;;;3.40;99.90;;;;;;4986019;28;20081;-81
2021/12/13 03:40:30;;;;;;;6.90;5.00;;;3.50;99.90;;;;;;4985633;28;20077;-81
2021/12/13 03:43:00;;;;;;;8.65;5.53;;;3.60;99.90;;;;;;4969202;28;20034;-81
2021/12/13 03:45:39;;;;;;;7.70;5.00;;;3.40;99.90;;;;;;4985807;28;20042;-81
2021/12/13 03:48:07;;;;;;;8.52;5.53;;;3.40;99.90;;;;;;4986451;28;20034;-81
2021/12/13 03:50:41;;;;;;;7.25;4.80;;;3.60;99.90;;;;;;4987232;28;20050;-81
2021/12/13 03:53:15;;;;;;;7.20;5.35;;;3.60;99.90;;;;;;4969482;28;20122;-81
2021/12/13 03:55:45;;;;;;;10.07;5.88;;;3.40;99.90;;;;;;4985748;28;20116;-81
2021/12/13 03:58:15;;;;;;;7.38;5.53;;;3.40;99.90;;;;;;4985574;28;20046;-81
2021/12/13 04:00:55;;;;;;;8.05;5.25;;;3.40;99.90;;;;;;5018826;28;20037;-81
2021/12/13 04:03:23;;;;;;;8.05;5.10;;;3.40;99.90;;;;;;5010071;28;20025;-80
2021/12/13 04:05:50;;;;;;;8.15;4.97;;;3.50;99.90;;;;;;5008030;28;20026;-81
2021/12/13 04:08:19;;;;;;;7.38;4.75;;;3.60;99.90;;;;;;5027417;28;20029;-80
2021/12/13 04:10:55;;;;;;;6.82;4.78;;;3.40;99.90;;;;;;5031314;28;20025;-80
2021/12/13 04:13:25;;;;;;;8.05;4.90;;;3.50;99.90;;;;;;5030979;28;20172;-80
2021/12/13 04:16:07;;;;;;;7.28;4.50;;;3.30;99.90;;;;;;5031381;28;20509;-81
2021/12/13 04:21:25;;;;;;;6.20;4.43;;;3.20;99.90;;;;;;5031525;28;20033;-80
2021/12/13 04:24:05;;;;;;;7.15;4.47;;;3.10;99.90;;;;;;5014730;28;20033;-80
2021/12/13 04:26:41;;;;;;;5.20;3.78;;;3.20;99.90;;;;;;5031790;28;20060;-81
2021/12/13 04:29:14;;;;;;;6.15;4.20;;;3.10;99.90;;;;;;5031278;28;20033;-80
2021/12/13 04:31:40;;;;;;;6.05;4.20;;;3.30;99.90;;;;;;5030500;28;20029;-80
2021/12/13 04:34:06;;;;;;;6.28;4.65;;;3.30;99.90;;;;;;5010795;28;20026;-80
2021/12/13 04:36:42;;;;;;;5.53;4.00;;;3.40;99.90;;;;;;5030744;28;20025;-80
2021/12/13 04:39:14;;;;;;;7.47;3.88;;;3.40;99.90;;;;;;5030646;28;20030;-80
2021/12/13 04:41:44;;;;;;;5.40;3.63;;;3.30;99.90;;;;;;5031711;28;20030;-80
2021/12/13 04:44:33;;;;;;;6.65;4.43;;;3.00;99.90;;;;;;5009477;28;20131;-81
2021/12/13 04:47:07;;;;;;;5.15;3.53;;;3.10;99.90;;;;;;5009903;28;20187;-80
2021/12/13 04:49:35;;;;;;;5.47;3.95;;;3.20;99.90;;;;;;5030273;28;20022;-80
2021/12/13 04:52:06;;;;;;;8.40;4.55;;;3.30;99.90;;;;;;5010146;28;20079;-80
2021/12/13 04:54:34;;;;;;;5.90;4.13;;;3.30;99.90;;;;;;5030756;28;20384;-80
2021/12/13 04:57:00;;;;;;;6.00;3.85;;;3.40;99.90;;;;;;5030217;28;20163;-80
2021/12/13 04:59:28;;;;;;;6.85;3.78;;;3.30;99.90;;;;;;5031853;28;20117;-81
2021/12/13 05:01:58;;;;;;;5.35;3.70;;;3.10;99.90;;;;;;5029992;28;20030;-80
2021/12/13 05:04:25;;;;;;;5.10;3.28;;;3.20;99.90;;;;;;5008961;28;20022;-81
2021/12/13 05:06:53;;;;;;;4.95;3.53;;;3.30;99.90;;;;;;5016889;28;20021;-81
2021/12/13 05:09:22;;;;;;;5.72;3.33;;;3.30;99.90;;;;;;5012229;28;20498;-81
2021/12/13 05:12:02;;;;;;;5.82;3.20;;;3.10;99.90;;;;;;5031175;28;20036;-81
2021/12/13 05:14:49;;;;;;;4.38;3.33;;;2.90;99.90;;;;;;5030611;28;20040;-80
2021/12/13 05:17:20;;;;;;;4.95;3.85;;;2.80;99.90;;;;;;5029647;28;20045;-81
2021/12/13 05:19:53;;;;;;;5.10;3.40;;;2.90;99.90;;;;;;5029459;28;20389;-81
2021/12/13 05:22:21;;;;;;;5.22;4.10;;;3.10;99.90;;;;;;5028991;28;20029;-81
2021/12/13 05:25:00;;;;;;;6.13;3.53;;;3.10;99.90;;;;;;5011540;28;20029;-80
2021/12/13 05:27:37;;;;;;;6.15;3.80;;;3.10;99.90;;;;;;5029287;28;20017;-80
2021/12/13 05:30:12;;;;;;;5.35;3.17;;;3.20;99.90;;;;;;5009934;28;20121;-80
2021/12/13 05:32:42;;;;;;;4.53;3.35;;;3.30;99.90;;;;;;5030343;28;20083;-81
2021/12/13 05:35:32;;;;;;;6.38;3.80;;;3.10;99.90;;;;;;5029128;28;20151;-80
2021/12/13 05:38:10;;;;;;;4.32;3.28;;;3.20;99.90;;;;;;5007621;28;20034;-81
2021/12/13 05:40:44;;;;;;;5.68;3.95;;;3.30;99.90;;;;;;5022927;28;20017;-81
2021/12/13 05:43:21;;;;;;;5.22;3.75;;;3.20;99.90;;;;;;5028947;28;20037;-80
2021/12/13 05:45:59;;;;;;;6.70;3.63;;;3.00;99.90;;;;;;5011106;28;20072;-80
2021/12/13 05:48:54;;;;;;;6.22;4.32;;;3.00;99.90;;;;;;5029566;28;20530;-80
2021/12/13 05:51:37;;;;;;;6.13;3.90;;;3.10;99.90;;;;;;5027913;28;20037;-81
2021/12/13 05:54:06;;;;;;;5.90;3.78;;;3.30;99.90;;;;;;5009488;28;20064;-81
2021/12/13 05:56:42;;;;;;;6.28;3.88;;;3.40;99.90;;;;;;5029755;28;20021;-80
2021/12/13 05:59:22;;;;;;;6.00;3.50;;;3.40;99.90;;;;;;5028674;28;20112;-81
2021/12/13 06:02:12;;;;;;;6.60;3.70;;;3.30;99.90;;;;;;5028359;28;20084;-81
2021/12/13 06:04:41;;;;;;;6.00;3.85;;;3.30;99.90;;;;;;5028476;28;20049;-81
2021/12/13 06:07:26;;;;;;;4.03;3.45;;;3.30;99.90;;;;;;5008714;28;20247;-81
2021/12/13 06:10:03;;;;;;;5.72;3.67;;;3.20;99.90;;;;;;5028702;28;20029;-81
2021/12/13 06:12:35;;;;;;;6.63;4.15;;;3.30;99.90;;;;;;5010282;28;20021;-81
2021/12/13 06:15:15;;;;;;;6.22;4.38;;;3.40;99.90;;;;;;5029080;28;20033;-80
2021/12/13 06:18:04;;;;;;;4.37;3.73;;;3.50;99.90;;;;;;5029998;28;20064;-81
2021/12/13 06:21:09;;;;;;;6.18;3.83;;;3.50;99.90;;;;;;5023708;28;20092;-80
2021/12/13 06:23:37;;;;;;;5.75;3.72;;;3.30;99.90;;;;;;5012028;28;20079;-80
2021/12/13 06:26:09;;;;;;;7.93;3.85;;;3.10;99.90;;;;;;5028435;28;20021;-80
2021/12/13 06:28:35;;;;;;;4.95;3.67;;;3.20;99.90;;;;;;5028063;28;20049;-81
2021/12/13 06:31:08;;;;;;;6.97;4.25;;;3.30;99.90;;;;;;5028212;28;20522;-80
2021/12/13 06:33:59;;;;;;;6.88;4.70;;;3.20;99.90;;;;;;5028229;28;20053;-80
2021/12/13 06:36:25;;;;;;;;;;;2.90;99.90;;;;;;5004527;28;20521;-80
2021/12/13 06:38:53;;;;;;;8.30;4.68;;;2.80;99.90;;;;;;5028885;28;19909;-80
2021/12/13 06:42:05;;;;;;;7.43;4.60;;;2.80;99.90;;;;;;5028085;28;20560;-80
2021/12/13 06:44:37;;;;;;;6.97;4.32;;;2.80;99.90;;;;;;5023610;28;20076;-80
2021/12/13 06:47:11;;;;;;;7.90;4.82;;;2.90;99.90;;;;;;5027309;28;20056;-80
2021/12/13 06:49:39;;;;;;;7.70;4.85;;;2.90;99.90;;;;;;5027545;28;20029;-81
2021/12/13 06:52:32;;;;;;;7.68;4.93;;;2.80;99.90;;;;;;5007396;28;20044;-80
2021/12/13 06:55:12;;;;;;;7.50;4.65;;;2.50;99.90;;;;;;5027198;28;20069;-80
2021/12/13 06:57:51;;;;;;;7.97;5.25;;;2.70;99.90;;;;;;5027222;28;20030;-80
2021/12/13 07:00:20;;;;;;;6.82;4.75;;;2.80;99.90;;;;;;5027539;28;20064;-80
2021/12/13 07:03:08;;;;;;;6.22;4.78;;;2.80;99.90;;;;;;5028509;28;20082;-80
2021/12/13 07:05:43;;;;;;;5.25;3.72;;;2.80;99.90;;;;;;5028420;28;20032;-80
2021/12/13 07:08:25;;;;;;;5.57;4.13;;;2.80;99.90;;;;;;5009642;28;20065;-80
2021/12/13 07:10:56;;;;;;;6.10;4.07;;;2.80;99.90;;;;;;5027493;28;20105;-80
2021/12/13 07:13:22;;;;;;;5.93;3.97;;;2.80;99.90;;;;;;5027216;28;20048;-80
2021/12/13 07:16:03;;;;;;;6.55;3.90;;;2.90;99.90;;;;;;5009691;28;20033;-80
2021/12/13 07:18:56;;;;;;;6.40;4.03;;;2.70;99.90;;;;;;4995334;28;20033;-80
2021/12/13 07:21:59;;;;;;;5.28;3.35;;;2.60;99.90;;;;;;5027749;28;20022;-80
2021/12/13 07:24:43;;;;;;;4.40;3.35;;;2.70;99.90;;;;;;5027601;28;20060;-80
2021/12/13 07:27:08;;;;;;;5.03;3.22;;;2.50;99.90;;;;;;5027856;28;20013;-80
2021/12/13 07:29:34;;;;;;;5.55;3.63;;;2.50;99.90;;;;;;5029210;28;20104;-80
2021/12/13 07:32:12;;;;;;;6.32;3.90;;;2.50;99.90;;;;;;5006296;28;20583;-80
2021/12/13 07:34:56;;;;;;;5.38;3.50;;;2.40;99.90;;;;;;5021817;28;20111;-80
2021/12/13 07:37:43;;;;;;;4.90;3.80;;;2.30;99.90;;;;;;5006059;28;20022;-80
2021/12/13 07:40:26;;;;;;;5.25;3.70;;;2.20;99.90;;;;;;5018106;28;20026;-80
2021/12/13 07:43:09;;;;;;;4.30;3.30;;;2.40;99.90;;;;;;5027062;28;20026;-80
2021/12/13 07:45:42;;;;;;;6.25;3.17;;;2.30;99.90;;;;;;5030658;28;20045;-80
2021/12/13 07:48:30;;;;;;;6.03;3.83;;;2.40;99.90;;;;;;5012097;28;20029;-80
2021/12/13 07:51:20;;;;;;;6.82;4.35;;;2.40;99.90;;;;;;5010263;28;20040;-80
2021/12/13 07:53:48;;;;;;;6.93;4.03;;;2.40;99.90;;;;;;5011684;28;20053;-80
2021/12/13 07:56:20;;;;;;;5.75;4.47;;;2.20;99.90;;;;;;5030869;28;20051;-80
2021/12/13 07:58:50;;;;;;;6.95;4.65;;;2.00;99.90;;;;;;5010090;28;20450;-80
2021/12/13 08:01:20;;;;;;;6.85;4.43;;;2.00;99.90;;;;;;5022466;28;20037;-80
2021/12/13 08:03:53;;;;;;;6.60;4.60;;;2.20;99.90;;;;;;5027266;28;20025;-79
2021/12/13 08:06:22;;;;;;;6.50;4.50;;;2.20;99.90;;;;;;5030212;28;20052;-79
2021/12/13 08:08:53;;;;;;;5.88;4.15;;;2.40;99.90;;;;;;5031964;28;20017;-79
2021/12/13 08:11:31;;;;;;;6.47;4.18;;;2.30;99.90;;;;;;5030865;28;20040;-79
2021/12/13 08:13:58;;;;;;;5.45;4.45;;;2.20;99.90;;;;;;5012257;28;20072;-79
2021/12/13 08:16:30;;;;;;;5.63;4.25;;;2.20;99.90;;;;;;5030114;28;20032;-79
2021/12/13 08:19:10;;;;;;;6.57;4.05;;;2.20;99.90;;;;;;5029365;28;20029;-79
2021/12/13 08:21:40;;;;;;;7.82;4.63;;;2.10;99.90;;;;;;5016009;28;20025;-78
2021/12/13 08:24:15;;;;;;;7.05;4.47;;;2.00;99.90;;;;;;5030416;28;20048;-79
2021/12/13 08:26:42;;;;;;;6.82;4.55;;;2.00;99.90;;;;;;5031170;28;20034;-79
2021/12/13 08:29:17;;;;;;;7.95;4.57;;;2.00;99.90;;;;;;5029797;28;20025;-80
2021/12/13 08:31:46;;;;;;;9.63;5.15;;;2.00;99.90;;;;;;5029701;28;20026;-80
2021/12/13 08:34:22;;;;;;;8.15;5.80;;;1.90;99.90;;;;;;5028864;28;20033;-80
2021/12/13 08:36:50;;;;;;;6.63;4.70;;;1.90;99.90;;;;;;5029441;28;20083;-79
2021/12/13 08:39:18;;;;;;;7.97;4.93;;;2.10;99.90;;;;;;5011791;28;20025;-80
2021/12/13 08:41:44;;;;;;;6.15;4.35;;;2.10;99.90;;;;;;5009934;28;20062;-80
2021/12/13 08:44:10;;;;;;;6.03;4.50;;;2.20;99.90;;;;;;5029230;28;20111;-80
2021/12/13 08:46:57;;;;;;;5.28;4.20;;;2.20;99.90;;;;;;5026001;28;20130;-80
2021/12/13 08:49:58;;;;;;;5.80;4.47;;;2.30;99.90;;;;;;5026515;28;20033;-80
2021/12/13 08:52:33;;;;;;;7.00;4.50;;;2.60;99.90;;;;;;5029289;28;20075;-80
2021/12/13 08:54:59;;;;;;;5.85;3.85;;;2.70;99.90;;;;;;5025406;28;20077;-80
2021/12/13 08:57:36;;;;;;;5.32;4.03;;;2.70;99.90;;;;;;5030444;28;20503;-80
2021/12/13 09:00:13;;;;;;;6.55;4.70;;;2.80;99.90;;;;;;5027153;28;20033;-79
2021/12/13 09:03:17;;;;;;;6.93;5.15;;;2.80;99.90;;;;;;5028512;28;20503;-80
2021/12/13 09:06:05;;;;;;;10.10;5.88;;;2.80;99.90;;;;;;4988395;28;20085;-80
2021/12/13 09:08:34;;;;;;;21.65;11.52;;;2.80;99.90;;;;;;4976687;28;20042;-80
2021/12/13 09:11:13;;;;;;;34.13;16.17;;;2.70;99.90;;;;;;4986893;28;20065;-80
2021/12/13 09:14:09;;;;;;;37.03;17.13;;;2.90;99.90;;;;;;4970995;28;20101;-79
2021/12/13 09:17:10;;;;;;;32.35;16.90;;;3.00;99.90;;;;;;4988632;28;20047;-80
2021/12/13 09:19:47;;;;;;;31.85;16.00;;;2.90;99.90;;;;;;4968995;28;20027;-80
2021/12/13 09:22:19;;;;;;;25.42;13.45;;;2.90;99.90;;;;;;4979075;28;20100;-80
2021/12/13 09:24:47;;;;;;;26.33;13.45;;;3.30;99.90;;;;;;4986562;28;20035;-79
2021/12/13 09:27:28;;;;;;;27.65;13.73;;;3.40;99.90;;;;;;4987924;28;20113;-79
2021/12/13 09:29:56;;;;;;;26.77;14.77;;;3.60;99.90;;;;;;4985526;28;20033;-79
2021/12/13 09:32:30;;;;;;;23.80;13.40;;;3.80;99.90;;;;;;4987392;28;20267;-80
2021/12/13 09:35:20;;;;;;;23.70;13.90;;;4.10;99.90;;;;;;4986652;28;20062;-80
2021/12/13 09:37:46;;;;;;;22.50;13.98;;;3.90;99.90;;;;;;4986300;28;20148;-79
2021/12/13 09:40:15;;;;;;;26.48;13.63;;;3.50;99.90;;;;;;4986470;28;20498;-79
2021/12/13 09:42:54;;;;;;;22.02;11.93;;;3.30;99.90;;;;;;5006108;28;20042;-80
2021/12/13 09:45:31;;;;;;;21.23;12.25;;;3.30;99.90;;;;;;5028829;28;20511;-79
2021/12/13 09:47:57;;;;;;;17.88;10.13;;;3.60;99.90;;;;;;5009327;28;20067;-79
2021/12/13 09:50:27;;;;;;;16.15;9.55;;;4.00;99.90;;;;;;5030392;28;20045;-79
2021/12/13 09:52:58;;;;;;;18.40;10.52;;;3.90;99.90;;;;;;5007447;28;20080;-80
2021/12/13 09:55:35;;;;;;;17.90;10.60;;;3.50;99.90;;;;;;5017774;28;20029;-79
2021/12/13 09:58:08;;;;;;;18.33;11.05;;;3.70;99.90;;;;;;5029001;28;20037;-80
2021/12/13 10:00:41;;;;;;;15.23;9.32;;;4.00;99.90;;;;;;5014396;28;20116;-80
2021/12/13 10:03:55;;;;;;;18.42;9.55;;;4.20;99.90;;;;;;5011856;28;20037;-80
2021/12/13 10:06:31;;;;;;;15.75;9.25;;;4.30;99.90;;;;;;4932224;28;20031;-80
2021/12/13 10:09:21;;;;;;;15.07;8.85;;;4.30;99.90;;;;;;4948864;28;20030;-80
2021/12/13 10:12:05;;;;;;;16.80;9.57;;;4.40;99.90;;;;;;4946191;29;20039;-80
2021/12/13 10:14:38;;;;;;;17.83;9.90;;;4.60;99.90;;;;;;4948791;28;20149;-80
2021/12/13 10:17:09;;;;;;;14.90;9.77;;;4.70;99.90;;;;;;4947950;28;20207;-81
2021/12/13 10:19:41;;;;;;;18.58;10.93;;;4.60;99.90;;;;;;4948277;28;20075;-81
2021/12/13 10:22:09;;;;;;;19.27;10.68;;;4.50;99.90;;;;;;4941295;28;20050;-81
2021/12/13 10:24:45;;;;;;;20.75;10.60;;;4.50;99.90;;;;;;4948068;28;20604;-80
2021/12/13 10:27:17;;;;;;;24.67;12.15;;;4.40;99.90;;;;;;4948074;29;20114;-80
2021/12/13 10:29:46;;;;;;;22.70;12.55;;;4.40;99.90;;;;;;4949018;28;20178;-80
2021/12/13 10:32:17;;;;;;;22.05;11.88;;;4.50;99.90;;;;;;4947919;29;20042;-80
2021/12/13 10:34:48;;;;;;;22.52;12.45;;;4.60;99.90;;;;;;4939325;29;20027;-81
2021/12/13 10:37:33;;;;;;;22.85;11.50;;;4.60;99.90;;;;;;4947482;28;20174;-81
2021/12/13 10:40:07;;;;;;;22.58;10.80;;;4.70;99.90;;;;;;4927918;29;20031;-81
2021/12/13 10:42:39;;;;;;;16.52;9.48;;;4.90;99.90;;;;;;4991177;28;20045;-81
2021/12/13 10:45:12;;;;;;;16.40;8.80;;;4.90;99.90;;;;;;5029024;28;20025;-79
2021/12/13 10:47:44;;;;;;;14.75;8.23;;;5.10;99.90;;;;;;5027840;28;20037;-80
2021/12/13 10:50:18;;;;;;;15.40;8.77;;;5.30;99.90;;;;;;5028242;28;20480;-80
2021/12/13 10:52:51;;;;;;;15.43;9.48;;;5.30;99.90;;;;;;5009797;28;20029;-80
2021/12/13 10:55:44;;;;;;;13.98;9.00;;;5.30;99.90;;;;;;5026892;28;20041;-80
2021/12/13 10:58:21;;;;;;;15.05;8.60;;;5.40;99.90;;;;;;5026873;28;20025;-80
2021/12/13 11:00:52;;;;;;;14.55;8.50;;;5.60;99.90;;;;;;5028508;28;20133;-81
2021/12/13 11:03:19;;;;;;;;;;;5.80;99.90;;;;;;5028668;28;20061;-81
2021/12/13 11:05:46;;;;;;;17.02;9.57;;;5.90;99.90;;;;;;5029387;28;19905;-80
2021/12/13 11:08:15;;;;;;;14.52;8.95;;;5.80;99.90;;;;;;5027890;28;20029;-80
2021/12/13 11:10:51;;;;;;;18.85;9.65;;;5.80;99.90;;;;;;5027048;28;20014;-81
2021/12/13 11:13:18;;;;;;;13.38;8.77;;;6.00;99.90;;;;;;5026128;28;20041;-81
2021/12/13 11:15:47;;;;;;;17.17;9.30;;;6.10;99.90;;;;;;5025719;28;20033;-81
2021/12/13 11:18:15;;;;;;;17.00;8.75;;;6.00;99.90;;;;;;5025515;28;20029;-81
2021/12/13 11:20:45;;;;;;;18.55;10.43;;;5.90;99.90;;;;;;5029450;28;20021;-81
2021/12/13 11:23:13;;;;;;;16.52;10.10;;;6.10;99.90;;;;;;5025617;28;20040;-79
2021/12/13 11:25:46;;;;;;;18.85;9.38;;;6.30;99.90;;;;;;5027893;28;20037;-80
2021/12/13 11:28:14;;;;;;;14.50;8.52;;;6.30;99.90;;;;;;5007616;28;20036;-79
2021/12/13 11:30:41;;;;;;;15.70;8.82;;;6.50;99.90;;;;;;5025243;28;20105;-80
2021/12/13 11:33:10;;;;;;;13.82;8.77;;;6.70;99.90;;;;;;5025578;28;20041;-78
2021/12/13 11:36:08;;;;;;;13.77;8.38;;;6.80;99.90;;;;;;5026171;28;20033;-79
2021/12/13 11:39:11;;;;;;;11.27;7.40;;;6.80;99.90;;;;;;5024390;28;20045;-79
2021/12/13 11:41:56;;;;;;;14.10;8.00;;;6.90;99.90;;;;;;5022547;28;20518;-79
2021/12/13 11:44:54;;;;;;;13.77;8.15;;;6.70;99.90;;;;;;5017027;28;20538;-79
2021/12/13 11:47:29;;;;;;;12.85;7.63;;;6.80;99.90;;;;;;5023730;28;20065;-79
2021/12/13 11:50:36;;;;;;;14.55;8.57;;;6.70;99.90;;;;;;5005806;28;20179;-79
2021/12/13 11:53:23;;;;;;;13.35;8.13;;;6.80;99.90;;;;;;5023870;28;20108;-79
2021/12/13 11:55:54;;;;;;;14.20;7.32;;;6.90;99.90;;;;;;5026510;28;20049;-79
2021/12/13 11:58:39;;;;;;;;;;;6.90;99.90;;;;;;5009150;28;20026;-79
2021/12/13 12:01:45;;;;;;;13.02;8.18;;;7.00;99.90;;;;;;5025117;28;19940;-79
2021/12/13 12:04:49;;;;;;;13.98;8.77;;;7.00;99.90;;;;;;5026596;28;20029;-79
2021/12/13 12:07:14;;;;;;;15.43;8.60;;;7.10;99.90;;;;;;5026619;28;20092;-79
2021/12/13 12:09:55;;;;;;;18.63;9.00;;;7.10;99.90;;;;;;5026909;28;20025;-79
2021/12/13 12:12:49;;;;;;;12.68;8.23;;;7.10;99.90;;;;;;5026357;28;20862;-78
2021/12/13 12:15:15;;;;;;;14.52;9.38;;;7.20;99.90;;;;;;5025699;28;20044;-79
2021/12/13 12:17:41;;;;;;;14.88;9.30;;;7.30;99.90;;;;;;5027980;28;20422;-79
2021/12/13 12:20:13;;;;;;;15.10;9.20;;;7.50;99.90;;;;;;5026357;28;20044;-80
2021/12/13 12:22:53;;;;;;;18.48;9.57;;;7.60;99.90;;;;;;5026217;28;20021;-80
2021/12/13 12:25:21;;;;;;;19.88;10.10;;;7.60;99.90;;;;;;5007948;28;20017;-80
2021/12/13 12:27:48;;;;;;;15.50;9.98;;;7.70;99.90;;;;;;5008554;28;20037;-80
2021/12/13 12:30:21;;;;;;;18.08;11.32;;;7.80;99.90;;;;;;5027534;28;20037;-79
2021/12/13 12:32:54;;;;;;;16.73;9.02;;;7.90;99.90;;;;;;5013554;28;20033;-79
2021/12/13 12:35:26;;;;;;;13.38;8.95;;;8.00;99.90;;;;;;5008749;28;20152;-79
2021/12/13 12:37:59;;;;;;;15.20;9.10;;;7.90;99.90;;;;;;5007550;28;20044;-80
2021/12/13 12:40:28;;;;;;;14.30;9.35;;;7.90;99.90;;;;;;5029453;28;20071;-80
2021/12/13 12:42:58;;;;;;;15.63;9.00;;;8.10;99.90;;;;;;5029517;28;20037;-80
2021/12/13 12:45:37;;;;;;;15.70;11.07;;;8.10;99.90;;;;;;5029814;28;20588;-80
2021/12/13 12:48:21;;;;;;;18.65;9.55;;;8.20;99.90;;;;;;5010066;28;20518;-80
2021/12/13 12:50:59;;;;;;;14.57;9.45;;;8.30;99.90;;;;;;5031382;28;20034;-80
2021/12/13 12:53:34;;;;;;;16.67;9.68;;;8.30;99.90;;;;;;5009108;28;20021;-80
2021/12/13 12:56:08;;;;;;;18.05;9.95;;;8.40;99.90;;;;;;5026602;28;20033;-80
2021/12/13 12:58:53;;;;;;;17.55;9.55;;;8.40;99.90;;;;;;5008064;28;20030;-79
2021/12/13 13:01:32;;;;;;;17.50;9.63;;;8.50;99.90;;;;;;5020787;28;20601;-79
2021/12/13 13:04:21;;;;;;;16.02;9.10;;;8.60;99.90;;;;;;5029908;28;20052;-80
2021/12/13 13:06:52;;;;;;;13.65;8.63;;;8.50;99.90;;;;;;5011333;28;20037;-80
2021/12/13 13:09:18;;;;;;;14.30;8.00;;;8.80;99.90;;;;;;5028988;28;20503;-80
2021/12/13 13:11:49;;;;;;;18.27;9.05;;;8.90;99.90;;;;;;5030331;28;20147;-79
2021/12/13 13:14:20;;;;;;;11.38;7.35;;;8.90;99.90;;;;;;5028974;28;20033;-80
2021/12/13 13:16:56;;;;;;;11.75;7.85;;;9.10;99.90;;;;;;5029220;28;20017;-80
2021/12/13 13:19:24;;;;;;;12.70;7.35;;;9.40;99.90;;;;;;5028909;28;20049;-81
2021/12/13 13:21:50;;;;;;;12.90;7.65;;;9.80;99.90;;;;;;5011001;28;20053;-80
2021/12/13 13:24:16;;;;;;;11.77;5.85;;;10.50;99.90;;;;;;5028496;28;20029;-80
2021/12/13 13:26:45;;;;;;;7.90;4.95;;;11.00;99.90;;;;;;5030625;28;20013;-80
2021/12/13 13:29:15;;;;;;;7.30;4.22;;;11.30;99.90;;;;;;5029160;28;20056;-80
2021/12/13 13:31:44;;;;;;;5.55;3.10;;;11.40;99.90;;;;;;5028748;28;20030;-80
2021/12/13 13:34:13;;;;;;;3.72;2.53;;;11.30;99.90;;;;;;5028808;28;20053;-80
2021/12/13 13:37:01;;;;;;;6.57;2.40;;;11.70;99.90;;;;;;5028787;28;20216;-79
2021/12/13 13:39:35;;;;;;;3.90;2.10;;;11.50;99.90;;;;;;5028857;28;20100;-82
2021/12/13 13:42:15;;;;;;;3.67;1.90;;;11.90;99.90;;;;;;5028441;28;20033;-80
2021/12/13 13:44:54;;;;;;;5.25;2.17;;;12.00;99.90;;;;;;5008855;28;20137;-80
2021/12/13 13:47:33;;;;;;;3.17;1.48;;;11.90;99.90;;;;;;5028877;28;20033;-79